createdAt,value
2022-12-07T00:00:24.186Z,4.60
2022-12-07T00:02:26.061Z,4.60
2022-12-07T00:04:27.632Z,4.60
2022-12-07T00:06:29.263Z,4.50
2022-12-07T00:08:31.460Z,4.50
2022-12-07T00:10:34.407Z,4.50
2022-12-07T00:12:36.089Z,4.60
2022-12-07T00:14:37.694Z,4.70
2022-12-07T00:16:39.817Z,4.60
2022-12-07T00:18:41.642Z,4.70
2022-12-07T00:20:43.228Z,4.70
2022-12-07T00:22:44.826Z,4.70
2022-12-07T00:24:46.416Z,4.70
2022-12-07T00:26:48.072Z,4.70
2022-12-07T00:28:50.782Z,4.60
2022-12-07T00:30:52.430Z,4.60
2022-12-07T00:32:54.010Z,4.60
2022-12-07T00:34:55.574Z,4.60
2022-12-07T00:36:57.165Z,4.60
2022-12-07T00:38:59.510Z,4.50
2022-12-07T00:41:05.128Z,4.50
2022-12-07T00:43:06.664Z,4.60
2022-12-07T00:45:08.696Z,4.50
2022-12-07T00:47:10.377Z,4.60
2022-12-07T00:49:12.001Z,4.50
2022-12-07T00:51:14.706Z,4.60
2022-12-07T00:53:16.482Z,4.60
2022-12-07T00:55:18.131Z,4.60
2022-12-07T00:57:19.703Z,4.50
2022-12-07T00:59:21.304Z,4.50
2022-12-07T01:01:23.329Z,4.60
2022-12-07T01:03:25.054Z,4.50
2022-12-07T01:05:26.770Z,4.50
2022-12-07T01:07:28.347Z,4.50
2022-12-07T01:09:29.951Z,4.40
2022-12-07T01:11:31.620Z,4.50
2022-12-07T01:13:34.057Z,4.40
2022-12-07T01:15:35.646Z,4.40
2022-12-07T01:17:37.210Z,4.40
2022-12-07T01:19:38.891Z,4.40
2022-12-07T01:21:40.483Z,4.40
2022-12-07T01:23:42.071Z,4.40
2022-12-07T01:25:43.678Z,4.40
2022-12-07T01:27:45.306Z,4.40
2022-12-07T01:29:47.017Z,4.40
2022-12-07T01:31:49.738Z,4.40
2022-12-07T01:33:52.745Z,4.40
2022-12-07T01:35:54.323Z,4.50
2022-12-07T01:37:55.921Z,4.50
2022-12-07T01:39:57.464Z,4.60
2022-12-07T01:41:59.031Z,4.50
2022-12-07T01:44:19.282Z,4.50
2022-12-07T01:46:20.886Z,4.40
2022-12-07T01:48:27.408Z,4.40
2022-12-07T01:50:32.593Z,4.40
2022-12-07T01:52:34.679Z,4.30
2022-12-07T01:54:36.885Z,4.30
2022-12-07T01:56:40.655Z,4.30
2022-12-07T01:58:42.234Z,4.30
2022-12-07T02:00:43.840Z,4.30
2022-12-07T02:02:52.204Z,4.20
2022-12-07T02:04:54.268Z,4.30
2022-12-07T02:06:56.197Z,4.40
2022-12-07T02:08:57.803Z,4.40
2022-12-07T02:10:59.611Z,4.40
2022-12-07T02:13:09.537Z,4.40
2022-12-07T02:15:11.244Z,4.40
2022-12-07T02:17:21.951Z,4.40
2022-12-07T02:19:26.638Z,4.40
2022-12-07T02:21:34.566Z,4.30
2022-12-07T02:23:36.109Z,4.30
2022-12-07T02:25:37.643Z,4.20
2022-12-07T02:27:53.319Z,4.20
2022-12-07T02:30:01.411Z,4.20
2022-12-07T02:32:13.602Z,4.20
2022-12-07T02:34:21.085Z,4.20
2022-12-07T02:36:24.504Z,4.20
2022-12-07T02:38:30.193Z,4.20
2022-12-07T02:40:34.869Z,4.20
2022-12-07T02:42:39.297Z,4.20
2022-12-07T02:44:41.210Z,4.20
2022-12-07T02:46:50.453Z,4.10
2022-12-07T02:48:52.686Z,4.00
2022-12-07T02:50:55.179Z,4.00
2022-12-07T02:52:56.821Z,4.00
2022-12-07T02:54:58.608Z,4.10
2022-12-07T02:57:05.260Z,4.00
2022-12-07T02:59:25.412Z,4.00
2022-12-07T03:01:31.833Z,4.00
2022-12-07T03:03:34.424Z,4.00
2022-12-07T03:05:41.803Z,4.00
2022-12-07T03:07:49.583Z,4.00
2022-12-07T03:09:54.308Z,4.00
2022-12-07T03:12:01.756Z,4.00
2022-12-07T03:14:15.054Z,4.00
2022-12-07T03:16:18.151Z,4.00
2022-12-07T03:18:21.426Z,4.00
2022-12-07T03:20:24.541Z,4.00
2022-12-07T03:22:30.142Z,4.00
2022-12-07T03:24:37.007Z,4.00
2022-12-07T03:26:41.530Z,4.00
2022-12-07T03:28:46.508Z,4.00
2022-12-07T03:30:52.351Z,4.00
2022-12-07T03:33:05.588Z,4.00
2022-12-07T03:35:13.350Z,4.00
2022-12-07T03:37:29.986Z,4.00
2022-12-07T03:39:37.328Z,4.00
2022-12-07T03:41:44.735Z,4.00
2022-12-07T03:43:47.020Z,4.00
2022-12-07T03:46:12.085Z,4.00
2022-12-07T03:48:32.079Z,3.90
2022-12-07T03:50:39.522Z,4.00
2022-12-07T03:52:47.127Z,4.00
2022-12-07T03:54:48.706Z,3.90
2022-12-07T03:56:51.181Z,3.90
2022-12-07T03:58:53.435Z,4.00
2022-12-07T04:00:55.151Z,4.00
2022-12-07T04:02:57.166Z,4.00
2022-12-07T04:04:58.792Z,3.90
2022-12-07T04:07:00.428Z,3.90
2022-12-07T04:09:02.039Z,3.90
2022-12-07T04:11:03.827Z,3.80
2022-12-07T04:13:05.430Z,3.80
2022-12-07T04:15:07.398Z,3.80
2022-12-07T04:17:09.600Z,3.80
2022-12-07T04:19:11.324Z,3.80
2022-12-07T04:21:12.951Z,3.80
2022-12-07T04:23:14.620Z,3.80
2022-12-07T04:25:16.395Z,3.70
2022-12-07T04:27:18.080Z,3.70
2022-12-07T04:29:20.022Z,3.70
2022-12-07T04:31:21.695Z,3.60
2022-12-07T04:33:23.394Z,3.60
2022-12-07T04:35:25.138Z,3.60
2022-12-07T04:37:26.718Z,3.60
2022-12-07T04:39:29.782Z,3.60
2022-12-07T04:41:31.565Z,3.60
2022-12-07T04:43:33.270Z,3.60
2022-12-07T04:45:34.840Z,3.50
2022-12-07T04:47:36.606Z,3.50
2022-12-07T04:49:38.247Z,3.40
2022-12-07T04:51:40.026Z,3.30
2022-12-07T04:53:41.555Z,3.20
2022-12-07T04:55:43.137Z,3.20
2022-12-07T04:57:44.762Z,3.20
2022-12-07T04:59:46.387Z,3.20
2022-12-07T05:01:48.217Z,3.50
2022-12-07T05:03:50.373Z,3.40
2022-12-07T05:05:51.990Z,3.30
2022-12-07T05:07:54.481Z,3.30
2022-12-07T05:09:56.095Z,3.30
2022-12-07T05:11:57.699Z,3.20
2022-12-07T05:13:59.299Z,3.40
2022-12-07T05:16:00.986Z,3.60
2022-12-07T05:18:04.267Z,3.70
2022-12-07T05:20:06.212Z,3.50
2022-12-07T05:22:07.781Z,3.50
2022-12-07T05:24:10.780Z,3.50
2022-12-07T05:26:12.379Z,3.40
2022-12-07T05:28:14.050Z,3.40
2022-12-07T05:30:15.682Z,3.40
2022-12-07T05:32:17.271Z,3.40
2022-12-07T05:34:18.953Z,3.30
2022-12-07T05:36:20.835Z,3.30
2022-12-07T05:38:22.424Z,3.20
2022-12-07T05:40:24.025Z,3.10
2022-12-07T05:42:25.620Z,3.20
2022-12-07T05:44:27.214Z,3.20
2022-12-07T05:46:28.792Z,3.10
2022-12-07T05:48:30.458Z,3.10
2022-12-07T05:50:32.078Z,3.10
2022-12-07T05:52:33.969Z,3.10
2022-12-07T05:54:35.545Z,3.10
2022-12-07T05:56:37.117Z,3.00
2022-12-07T05:58:57.553Z,3.00
2022-12-07T06:00:59.191Z,2.90
2022-12-07T06:03:00.877Z,2.90
2022-12-07T06:05:03.848Z,2.80
2022-12-07T06:07:06.026Z,2.80
2022-12-07T06:09:07.603Z,2.80
2022-12-07T06:11:27.981Z,2.90
2022-12-07T06:13:29.575Z,3.00
2022-12-07T06:15:31.227Z,3.00
2022-12-07T06:17:32.812Z,2.90
2022-12-07T06:19:34.429Z,3.00
2022-12-07T06:21:36.050Z,3.10
2022-12-07T06:23:37.833Z,3.10
2022-12-07T06:25:39.636Z,3.10
2022-12-07T06:27:42.010Z,3.10
2022-12-07T06:29:43.829Z,3.00
2022-12-07T06:31:46.386Z,3.00
2022-12-07T06:33:48.228Z,3.00
2022-12-07T06:35:57.661Z,3.00
2022-12-07T06:37:59.438Z,3.00
2022-12-07T06:40:02.114Z,3.00
2022-12-07T06:42:05.466Z,3.00
2022-12-07T06:44:08.188Z,3.00
2022-12-07T06:46:10.685Z,3.00
2022-12-07T06:58:07.168Z,3.00
2022-12-07T07:03:51.714Z,3.00
2022-12-07T07:06:08.492Z,3.00
2022-12-07T07:08:22.326Z,3.30
2022-12-07T07:10:53.273Z,3.10
2022-12-07T07:17:32.205Z,3.00
2022-12-07T07:19:32.155Z,3.10
2022-12-07T07:24:51.027Z,3.10
2022-12-07T07:29:32.948Z,3.10
2022-12-07T07:31:36.513Z,3.20
2022-12-07T07:33:43.301Z,3.10
2022-12-07T07:35:47.821Z,3.20
2022-12-07T07:37:49.446Z,3.20
2022-12-07T07:39:51.210Z,3.30
2022-12-07T07:41:52.858Z,3.40
2022-12-07T07:43:54.478Z,3.40
2022-12-07T07:45:56.214Z,3.40
2022-12-07T07:47:58.050Z,3.40
2022-12-07T07:50:00.053Z,3.40
2022-12-07T07:52:01.758Z,3.40
2022-12-07T07:54:03.628Z,3.40
2022-12-07T07:56:05.250Z,3.50
2022-12-07T07:58:06.831Z,3.50
2022-12-07T08:00:10.323Z,3.50
2022-12-07T08:02:16.314Z,3.60
2022-12-07T08:04:18.163Z,3.60
2022-12-07T08:06:19.866Z,3.70
2022-12-07T08:08:21.594Z,3.70
2022-12-07T08:10:23.274Z,3.80
2022-12-07T08:12:24.817Z,3.80
2022-12-07T08:14:28.406Z,3.80
2022-12-07T08:16:30.148Z,3.80
2022-12-07T08:18:31.959Z,3.80
2022-12-07T08:20:34.630Z,3.90
2022-12-07T08:22:36.376Z,4.00
2022-12-07T08:24:37.959Z,4.00
2022-12-07T08:26:39.659Z,4.10
2022-12-07T08:28:42.164Z,4.10
2022-12-07T08:30:46.600Z,4.10
2022-12-07T08:32:48.895Z,4.20
2022-12-07T08:34:50.930Z,4.20
2022-12-07T08:36:52.609Z,4.30
2022-12-07T08:39:29.365Z,4.30
2022-12-07T08:41:15.955Z,4.30
2022-12-07T08:43:17.557Z,4.30
2022-12-07T08:45:26.467Z,4.30
2022-12-07T08:47:28.564Z,4.30
2022-12-07T08:49:36.781Z,4.30
2022-12-07T08:51:39.387Z,4.30
2022-12-07T08:53:41.188Z,4.30
2022-12-07T08:55:42.817Z,4.40
2022-12-07T08:57:44.518Z,4.30
2022-12-07T08:59:46.074Z,4.40
2022-12-07T09:01:47.733Z,4.50
2022-12-07T09:03:49.372Z,4.50
2022-12-07T09:05:51.164Z,4.50
2022-12-07T09:07:55.315Z,4.60
2022-12-07T09:09:57.159Z,4.70
2022-12-07T09:11:58.984Z,4.70
2022-12-07T09:14:00.646Z,4.70
2022-12-07T09:16:02.459Z,4.80
2022-12-07T09:18:07.424Z,4.70
2022-12-07T09:20:09.607Z,4.90
2022-12-07T09:22:11.771Z,4.80
2022-12-07T09:24:13.953Z,4.70
2022-12-07T09:26:16.615Z,4.80
2022-12-07T09:28:18.309Z,4.90
2022-12-07T09:30:20.110Z,5.00
2022-12-07T09:32:22.256Z,4.80
2022-12-07T09:34:24.505Z,4.60
2022-12-07T09:36:26.832Z,4.70
2022-12-07T09:38:30.561Z,4.70
2022-12-07T09:40:34.118Z,4.80
2022-12-07T09:42:37.339Z,4.90
2022-12-07T09:44:41.039Z,5.10
2022-12-07T09:46:43.840Z,5.20
2022-12-07T09:48:46.411Z,5.00
2022-12-07T09:50:49.184Z,5.00
2022-12-07T09:52:51.752Z,5.10
2022-12-07T09:54:53.458Z,5.10
2022-12-07T09:56:55.268Z,5.10
2022-12-07T09:59:01.593Z,5.30
2022-12-07T10:01:09.087Z,5.40
2022-12-07T10:03:12.590Z,5.50
2022-12-07T10:05:22.072Z,5.60
2022-12-07T10:07:28.268Z,5.30
2022-12-07T10:09:35.856Z,5.30
2022-12-07T10:11:57.474Z,5.40
2022-12-07T10:14:11.718Z,5.50
2022-12-07T10:16:28.895Z,5.50
2022-12-07T10:18:30.667Z,5.40
2022-12-07T10:20:32.271Z,5.50
2022-12-07T10:22:33.910Z,5.40
2022-12-07T10:24:35.689Z,5.50
2022-12-07T10:26:39.763Z,5.60
2022-12-07T10:28:43.701Z,5.40
2022-12-07T10:30:54.428Z,5.50
2022-12-07T10:32:56.103Z,5.60
2022-12-07T10:35:17.682Z,5.60
2022-12-07T10:37:20.949Z,5.60
2022-12-07T10:39:23.546Z,5.70
2022-12-07T10:41:25.391Z,5.60
2022-12-07T10:43:27.215Z,5.60
2022-12-07T10:45:29.102Z,5.70
2022-12-07T10:47:33.803Z,5.60
2022-12-07T10:49:38.470Z,5.60
2022-12-07T10:51:43.341Z,5.70
2022-12-07T10:53:59.185Z,5.60
2022-12-07T10:56:19.790Z,5.60
2022-12-07T10:58:40.261Z,5.70
2022-12-07T11:00:51.004Z,5.70
2022-12-07T11:03:01.825Z,5.60
2022-12-07T11:05:09.257Z,5.60
2022-12-07T11:07:13.775Z,5.60
2022-12-07T11:09:15.366Z,5.60
2022-12-07T11:11:19.976Z,5.60
2022-12-07T11:13:38.260Z,5.60
2022-12-07T11:15:46.183Z,5.50
2022-12-07T11:17:56.573Z,5.60
2022-12-07T11:20:01.474Z,5.60
2022-12-07T11:22:26.571Z,5.60
2022-12-07T11:24:45.458Z,5.50
2022-12-07T11:26:56.189Z,5.50
2022-12-07T11:28:57.706Z,5.40
2022-12-07T11:30:59.428Z,5.40
2022-12-07T11:33:13.045Z,5.40
2022-12-07T11:35:24.496Z,5.40
2022-12-07T11:37:39.809Z,5.40
2022-12-07T11:39:51.320Z,5.50
2022-12-07T11:41:56.050Z,5.50
2022-12-07T11:43:57.582Z,5.50
2022-12-07T11:46:08.672Z,5.50
2022-12-07T11:48:15.275Z,5.50
2022-12-07T11:50:35.711Z,5.60
2022-12-07T11:52:41.016Z,5.60
2022-12-07T11:54:44.427Z,5.60
2022-12-07T11:56:48.968Z,5.50
2022-12-07T11:58:55.401Z,5.50
2022-12-07T12:01:07.364Z,5.50
2022-12-07T12:03:21.465Z,5.60
2022-12-07T12:05:24.018Z,5.60
2022-12-07T12:10:00.536Z,5.60
2022-12-07T12:14:51.630Z,5.60
2022-12-07T12:16:53.353Z,5.50
2022-12-07T12:19:15.272Z,5.50
2022-12-07T12:21:19.900Z,5.50
2022-12-07T12:23:23.227Z,5.50
2022-12-07T12:25:45.127Z,5.50
2022-12-07T12:27:48.152Z,5.40
2022-12-07T12:29:53.988Z,5.40
2022-12-07T12:32:12.523Z,5.50
2022-12-07T12:34:33.157Z,5.50
2022-12-07T12:36:45.055Z,5.50
2022-12-07T12:39:11.981Z,5.50
2022-12-07T12:41:33.669Z,5.40
2022-12-07T12:43:53.858Z,5.40
2022-12-07T12:46:14.279Z,5.30
2022-12-07T12:48:29.683Z,5.40
2022-12-07T12:50:35.753Z,5.40
2022-12-07T12:52:43.395Z,5.40
2022-12-07T12:55:14.222Z,5.40
2022-12-07T12:57:23.316Z,5.40
2022-12-07T12:59:25.018Z,5.40
2022-12-07T13:01:36.128Z,5.40
2022-12-07T13:03:37.964Z,5.40
2022-12-07T13:05:39.747Z,5.40
2022-12-07T13:07:54.014Z,5.50
2022-12-07T13:09:55.753Z,5.50
2022-12-07T13:11:59.285Z,5.50
2022-12-07T13:14:19.686Z,5.30
2022-12-07T13:16:24.517Z,5.30
2022-12-07T13:18:26.274Z,5.40
2022-12-07T13:20:46.457Z,5.40
2022-12-07T13:22:49.739Z,5.50
2022-12-07T13:24:55.250Z,5.40
2022-12-07T13:26:57.026Z,5.30
2022-12-07T13:29:10.572Z,5.30
2022-12-07T13:31:19.873Z,5.30
2022-12-07T13:33:21.669Z,5.30
2022-12-07T13:35:29.351Z,5.30
2022-12-07T13:37:38.613Z,5.40
2022-12-07T13:39:47.932Z,5.40
2022-12-07T13:41:57.740Z,5.40
2022-12-07T13:44:04.069Z,5.40
2022-12-07T13:46:08.623Z,5.40
2022-12-07T13:48:15.111Z,5.40
2022-12-07T13:50:32.330Z,5.30
2022-12-07T13:52:33.957Z,5.40
2022-12-07T13:54:44.178Z,5.30
2022-12-07T13:56:48.900Z,5.30
2022-12-07T13:58:50.691Z,5.40
2022-12-07T14:00:52.514Z,5.30
2022-12-07T14:03:00.738Z,5.40
2022-12-07T14:05:11.876Z,5.40
2022-12-07T14:07:20.097Z,5.40
2022-12-07T14:09:23.520Z,5.50
2022-12-07T14:11:30.231Z,5.40
2022-12-07T14:13:46.113Z,5.50
2022-12-07T14:15:50.933Z,5.50
2022-12-07T14:17:53.426Z,5.60
2022-12-07T14:19:58.934Z,5.60
2022-12-07T14:22:07.289Z,5.50
2022-12-07T14:24:23.839Z,5.50
2022-12-07T14:26:28.344Z,5.50
2022-12-07T14:28:31.643Z,5.40
2022-12-07T14:30:34.284Z,5.40
2022-12-07T14:32:36.612Z,5.40
2022-12-07T14:34:38.216Z,5.50
2022-12-07T14:36:39.786Z,5.50
2022-12-07T14:38:41.910Z,5.40
2022-12-07T14:40:43.499Z,5.40
2022-12-07T14:42:47.575Z,5.40
2022-12-07T14:44:49.245Z,5.50
2022-12-07T14:53:57.836Z,5.30
2022-12-07T14:55:59.519Z,5.20
2022-12-07T14:58:01.185Z,5.30
2022-12-07T15:00:03.177Z,5.30
2022-12-07T15:02:04.981Z,5.30
2022-12-07T15:04:06.990Z,5.30
2022-12-07T15:06:08.715Z,5.20
2022-12-07T15:08:11.596Z,5.30
2022-12-07T15:10:24.572Z,5.30
2022-12-07T15:12:26.427Z,5.20
2022-12-07T15:14:28.080Z,5.20
2022-12-07T15:16:40.636Z,5.30
2022-12-07T15:19:26.220Z,5.20
2022-12-07T15:21:17.330Z,5.20
2022-12-07T15:23:18.890Z,5.20
2022-12-07T15:25:20.477Z,5.20
2022-12-07T15:27:22.080Z,5.20
2022-12-07T15:29:24.142Z,5.20
2022-12-07T15:31:54.689Z,5.20
2022-12-07T15:33:47.521Z,5.20
2022-12-07T15:35:49.223Z,5.20
2022-12-07T15:37:51.222Z,5.20
2022-12-07T15:39:52.866Z,5.20
2022-12-07T15:41:54.552Z,5.20
2022-12-07T15:44:14.749Z,5.20
2022-12-07T15:46:16.441Z,5.20
2022-12-07T15:48:27.923Z,5.20
2022-12-07T15:50:30.519Z,5.20
2022-12-07T15:52:32.776Z,5.10
2022-12-07T15:54:34.405Z,5.10
2022-12-07T15:56:36.047Z,5.10
2022-12-07T15:58:38.724Z,5.10
2022-12-07T16:00:40.309Z,5.20
2022-12-07T16:02:42.229Z,5.20
2022-12-07T16:04:43.928Z,5.10
2022-12-07T16:06:45.731Z,5.10
2022-12-07T16:08:47.707Z,5.00
2022-12-07T16:10:49.307Z,5.00
2022-12-07T16:12:50.936Z,5.00
2022-12-07T16:14:52.506Z,5.00
2022-12-07T16:16:54.336Z,5.00
2022-12-07T16:18:56.756Z,5.00
2022-12-07T16:20:58.340Z,5.00
2022-12-07T16:22:59.948Z,5.00
2022-12-07T16:25:01.855Z,4.90
2022-12-07T16:27:03.818Z,4.90
2022-12-07T16:29:05.499Z,4.90
2022-12-07T16:31:11.504Z,4.90
2022-12-07T16:33:13.133Z,4.90
2022-12-07T16:35:14.762Z,5.00
2022-12-07T16:37:16.416Z,5.00
2022-12-07T16:39:19.198Z,5.00
2022-12-07T16:41:20.873Z,4.90
2022-12-07T16:43:22.629Z,4.90
2022-12-07T16:45:24.197Z,4.80
2022-12-07T16:47:25.826Z,4.80
2022-12-07T16:49:27.436Z,4.80
2022-12-07T16:51:29.372Z,4.70
2022-12-07T16:53:30.955Z,4.80
2022-12-07T16:55:34.107Z,4.80
2022-12-07T16:57:35.752Z,4.80
2022-12-07T16:59:37.424Z,4.70
2022-12-07T17:01:38.987Z,4.70
2022-12-07T17:03:40.965Z,4.70
2022-12-07T17:05:43.080Z,4.70
2022-12-07T17:07:44.846Z,4.70
2022-12-07T17:09:46.582Z,4.70
2022-12-07T17:11:48.728Z,4.60
2022-12-07T17:14:08.931Z,4.60
2022-12-07T17:16:10.664Z,4.50
2022-12-07T17:18:14.023Z,4.50
2022-12-07T17:20:17.618Z,4.60
2022-12-07T17:22:19.281Z,4.50
2022-12-07T17:24:20.901Z,4.60
2022-12-07T17:26:23.933Z,4.60
2022-12-07T17:28:25.471Z,4.50
2022-12-07T17:30:27.106Z,4.40
2022-12-07T17:32:28.721Z,4.40
2022-12-07T17:34:30.296Z,4.50
2022-12-07T17:36:32.740Z,4.50
2022-12-07T17:38:34.391Z,4.50
2022-12-07T17:40:36.068Z,4.50
2022-12-07T17:42:37.782Z,4.50
2022-12-07T17:44:39.386Z,4.50
2022-12-07T17:46:41.411Z,4.50
2022-12-07T17:48:43.063Z,4.50
2022-12-07T17:51:03.156Z,4.50
2022-12-07T17:53:10.835Z,4.60
2022-12-07T17:55:12.501Z,4.50
2022-12-07T17:57:14.215Z,4.50
2022-12-07T17:59:16.332Z,4.50
2022-12-07T18:01:23.446Z,4.50
2022-12-07T18:03:25.593Z,4.40
2022-12-07T18:05:27.275Z,4.40
2022-12-07T18:07:28.971Z,4.40
2022-12-07T18:09:30.564Z,4.50
2022-12-07T18:11:32.604Z,4.50
2022-12-07T18:13:38.112Z,4.50
2022-12-07T18:15:39.954Z,4.50
2022-12-07T18:17:42.653Z,4.50
2022-12-07T18:19:44.312Z,4.50
2022-12-07T18:21:46.759Z,4.50
2022-12-07T18:23:49.451Z,4.50
2022-12-07T18:25:51.136Z,4.70
2022-12-07T18:27:52.867Z,5.00
2022-12-07T18:29:55.709Z,5.20
2022-12-07T18:31:57.364Z,5.20
2022-12-07T18:34:08.813Z,5.00
2022-12-07T18:36:10.799Z,4.80
2022-12-07T18:38:12.686Z,4.70
2022-12-07T18:40:14.527Z,4.60
2022-12-07T18:42:16.106Z,4.60
2022-12-07T18:44:55.852Z,4.60
2022-12-07T18:47:27.943Z,4.50
2022-12-07T18:52:29.295Z,4.40
2022-12-07T18:54:35.184Z,4.40
2022-12-07T18:56:37.242Z,4.40
2022-12-07T18:58:39.137Z,4.40
2022-12-07T19:00:40.929Z,4.40
2022-12-07T19:02:42.686Z,4.40
2022-12-07T19:04:44.864Z,4.40
2022-12-07T19:06:47.868Z,4.40
2022-12-07T19:08:49.508Z,4.30
2022-12-07T19:10:51.306Z,4.30
2022-12-07T19:12:53.077Z,4.30
2022-12-07T19:14:55.436Z,4.30
2022-12-07T19:16:58.795Z,4.30
2022-12-07T19:19:00.535Z,4.30
2022-12-07T19:21:03.440Z,4.20
2022-12-07T19:23:07.736Z,4.30
2022-12-07T19:25:09.568Z,4.20
2022-12-07T19:27:12.315Z,4.20
2022-12-07T19:29:14.794Z,4.20
2022-12-07T19:31:19.052Z,4.20
2022-12-07T19:33:21.166Z,4.20
2022-12-07T19:35:23.490Z,4.20
2022-12-07T19:37:25.429Z,4.20
2022-12-07T19:39:27.314Z,4.20
2022-12-07T19:41:35.435Z,4.20
2022-12-07T19:43:37.776Z,4.10
2022-12-07T19:46:07.503Z,4.10
2022-12-07T19:48:12.396Z,4.10
2022-12-07T19:50:15.233Z,4.10
2022-12-07T19:52:18.105Z,4.20
2022-12-07T19:54:22.114Z,4.20
2022-12-07T19:56:24.117Z,4.20
2022-12-07T19:58:26.258Z,4.20
2022-12-07T20:00:29.086Z,4.20
2022-12-07T20:02:33.348Z,4.20
2022-12-07T20:04:36.118Z,4.10
2022-12-07T20:06:38.695Z,4.20
2022-12-07T20:08:49.184Z,4.20
2022-12-07T20:10:57.445Z,4.20
2022-12-07T20:13:20.110Z,4.10
2022-12-07T20:15:23.196Z,4.10
2022-12-07T20:17:27.184Z,4.10
2022-12-07T20:19:29.682Z,4.10
2022-12-07T20:21:31.844Z,4.10
2022-12-07T20:23:33.849Z,4.10
2022-12-07T20:25:37.256Z,4.10
2022-12-07T20:27:41.444Z,4.10
2022-12-07T20:29:44.885Z,4.10
2022-12-07T20:32:00.582Z,4.10
2022-12-07T20:34:56.132Z,4.10
2022-12-07T20:37:19.094Z,4.00
2022-12-07T20:51:00.548Z,4.00
2022-12-07T20:53:48.733Z,4.00
2022-12-07T21:05:32.398Z,4.00
2022-12-07T21:10:53.466Z,3.90
2022-12-07T21:13:29.715Z,3.90
2022-12-07T21:15:51.745Z,4.00
2022-12-07T21:18:53.513Z,3.90
2022-12-07T21:35:18.029Z,3.90
2022-12-07T21:40:15.108Z,3.90
2022-12-07T21:47:09.233Z,3.90
2022-12-07T21:49:16.521Z,3.90
2022-12-07T21:51:24.369Z,3.90
2022-12-07T21:53:41.739Z,3.90
2022-12-07T21:55:49.298Z,3.90
2022-12-07T21:57:54.207Z,3.90
2022-12-07T21:59:59.333Z,3.90
2022-12-07T22:02:03.567Z,3.80
2022-12-07T22:04:09.708Z,3.80
2022-12-07T22:06:18.271Z,3.80
2022-12-07T22:08:20.709Z,3.80
2022-12-07T22:10:34.554Z,3.80
2022-12-07T22:12:40.371Z,3.80
2022-12-07T22:15:12.412Z,3.80
2022-12-07T22:17:45.675Z,3.80
2022-12-07T22:19:50.174Z,3.80
2022-12-07T22:21:58.209Z,3.70
2022-12-07T22:24:02.272Z,3.70
2022-12-07T22:28:24.719Z,3.70
2022-12-07T22:30:39.120Z,3.80
2022-12-07T22:32:49.460Z,3.70
2022-12-07T22:34:51.677Z,3.60
2022-12-07T22:36:53.416Z,3.50
2022-12-07T22:38:58.370Z,3.50
2022-12-07T22:44:11.867Z,3.40
2022-12-07T22:46:15.357Z,3.40
2022-12-07T22:48:17.761Z,3.30
2022-12-07T22:50:23.356Z,3.30
2022-12-07T22:52:25.245Z,3.30
2022-12-07T22:54:34.372Z,3.30
2022-12-07T22:56:39.463Z,3.20
2022-12-07T22:59:16.845Z,3.20
2022-12-07T23:01:46.677Z,3.20
2022-12-07T23:03:54.856Z,3.10
2022-12-07T23:06:29.354Z,3.10
2022-12-07T23:08:34.715Z,3.10
2022-12-07T23:20:14.737Z,2.90
2022-12-07T23:22:17.899Z,2.90
2022-12-07T23:24:20.061Z,2.80
2022-12-07T23:26:21.719Z,2.80
2022-12-07T23:28:23.321Z,2.80
2022-12-07T23:30:24.935Z,2.70
2022-12-07T23:32:26.572Z,2.70
2022-12-07T23:34:29.803Z,2.60
2022-12-07T23:36:32.029Z,2.60
2022-12-07T23:38:33.578Z,2.70
2022-12-07T23:40:36.257Z,2.70
2022-12-07T23:42:37.819Z,2.90
2022-12-07T23:44:39.454Z,2.80
2022-12-07T23:46:41.309Z,2.70
2022-12-07T23:48:44.848Z,2.60
2022-12-07T23:50:46.401Z,2.70
2022-12-07T23:52:47.980Z,2.80
2022-12-07T23:54:49.603Z,2.80
2022-12-07T23:56:51.156Z,2.80
2022-12-07T23:58:53.045Z,2.80
